createdAt,value
2019-03-31T00:01:10.996Z,83.60
2019-03-31T00:03:40.676Z,84.53
2019-03-31T00:06:10.591Z,83.98
2019-03-31T00:08:40.307Z,83.58
2019-03-31T00:11:10.047Z,84.07
2019-03-31T00:13:39.688Z,83.99
2019-03-31T00:16:09.363Z,83.33
2019-03-31T00:18:39.235Z,83.95
2019-03-31T00:21:08.890Z,83.13
2019-03-31T00:23:38.570Z,83.72
2019-03-31T00:26:08.221Z,84.05
2019-03-31T00:28:37.996Z,83.68
2019-03-31T00:31:21.219Z,84.04
2019-03-31T00:33:39.355Z,84.52
2019-03-31T00:36:09.500Z,84.78
2019-03-31T00:38:39.208Z,84.30
2019-03-31T00:41:08.915Z,84.10
2019-03-31T00:43:38.601Z,83.80
2019-03-31T00:46:08.286Z,83.76
2019-03-31T00:48:37.976Z,84.56
2019-03-31T00:51:07.615Z,85.35
2019-03-31T00:53:37.340Z,85.50
2019-03-31T00:56:07.454Z,85.91
2019-03-31T00:58:37.192Z,85.57
2019-03-31T01:01:36.829Z,86.50
2019-03-31T01:04:03.917Z,86.68
2019-03-31T01:06:34.353Z,86.65
2019-03-31T01:09:07.496Z,86.75
2019-03-31T01:11:37.205Z,86.51
2019-03-31T01:14:06.809Z,87.03
2019-03-31T01:16:36.449Z,86.97
2019-03-31T01:19:06.167Z,86.96
2019-03-31T01:21:35.811Z,86.42
2019-03-31T01:24:05.489Z,86.70
2019-03-31T01:26:35.134Z,87.25
2019-03-31T01:29:05.165Z,87.68
2019-03-31T01:31:34.816Z,87.22
2019-03-31T01:34:04.714Z,87.91
2019-03-31T01:36:34.699Z,87.93
2019-03-31T01:39:05.497Z,87.92
2019-03-31T01:41:35.149Z,87.95
2019-03-31T01:44:04.965Z,88.08
2019-03-31T01:46:34.623Z,87.89
2019-03-31T01:49:04.299Z,87.79
2019-03-31T01:51:33.949Z,88.33
2019-03-31T01:54:03.649Z,88.11
2019-03-31T01:56:33.304Z,87.65
2019-03-31T01:59:03.220Z,88.08
2019-03-31T02:01:32.939Z,88.53
2019-03-31T02:04:02.805Z,88.59
2019-03-31T02:06:32.456Z,88.03
2019-03-31T02:09:02.241Z,88.17
2019-03-31T02:11:31.889Z,88.57
2019-03-31T02:14:01.650Z,88.32
2019-03-31T02:16:31.310Z,88.91
2019-03-31T02:19:01.041Z,88.95
2019-03-31T02:21:31.167Z,88.83
2019-03-31T02:24:00.871Z,89.31
2019-03-31T02:26:30.535Z,89.28
2019-03-31T02:29:00.239Z,89.10
2019-03-31T02:31:29.899Z,89.35
2019-03-31T02:33:59.607Z,88.99
2019-03-31T02:36:29.246Z,89.43
2019-03-31T02:38:58.951Z,89.13
2019-03-31T02:41:28.662Z,89.22
2019-03-31T02:43:58.371Z,89.69
2019-03-31T02:46:28.003Z,89.45
2019-03-31T02:48:57.681Z,89.31
2019-03-31T02:51:27.646Z,89.37
2019-03-31T02:53:57.337Z,89.43
2019-03-31T02:56:28.220Z,89.30
2019-03-31T02:58:58.897Z,89.22
2019-03-31T03:01:29.750Z,89.27
2019-03-31T03:04:01.603Z,89.24
2019-03-31T03:06:32.424Z,89.33
2019-03-31T03:09:06.189Z,89.54
2019-03-31T03:11:36.884Z,89.85
2019-03-31T03:14:07.043Z,89.54
2019-03-31T03:16:36.697Z,89.63
2019-03-31T03:19:06.403Z,90.17
2019-03-31T03:21:36.058Z,90.79
2019-03-31T03:24:05.735Z,91.15
2019-03-31T03:26:35.378Z,90.87
2019-03-31T03:29:05.081Z,90.27
2019-03-31T03:31:34.713Z,89.77
2019-03-31T03:34:04.431Z,90.21
2019-03-31T03:36:34.077Z,90.19
2019-03-31T03:39:06.079Z,89.96
2019-03-31T03:41:35.746Z,90.32
2019-03-31T03:44:05.388Z,90.99
2019-03-31T03:46:35.206Z,91.25
2019-03-31T03:49:05.144Z,91.54
2019-03-31T03:51:34.937Z,91.26
2019-03-31T03:54:04.571Z,91.30
2019-03-31T03:56:34.241Z,91.68
2019-03-31T03:59:03.882Z,91.66
2019-03-31T04:01:33.569Z,91.10
2019-03-31T04:04:03.237Z,91.20
2019-03-31T04:06:32.950Z,91.38
2019-03-31T04:09:02.588Z,91.56
2019-03-31T04:11:32.283Z,91.46
2019-03-31T04:14:01.961Z,91.47
2019-03-31T04:16:31.731Z,92.01
2019-03-31T04:19:01.381Z,91.27
2019-03-31T04:21:31.098Z,91.36
2019-03-31T04:24:00.733Z,91.70
2019-03-31T04:26:30.416Z,91.95
2019-03-31T04:29:00.154Z,92.09
2019-03-31T04:31:29.777Z,92.34
2019-03-31T04:33:59.457Z,91.84
2019-03-31T04:36:29.170Z,91.53
2019-03-31T04:39:00.435Z,91.25
2019-03-31T04:41:30.542Z,91.36
2019-03-31T04:44:00.215Z,92.02
2019-03-31T04:46:29.900Z,92.39
2019-03-31T04:48:59.775Z,92.70
2019-03-31T04:51:29.507Z,92.90
2019-03-31T04:53:59.229Z,93.14
2019-03-31T04:56:28.907Z,92.26
2019-03-31T04:58:58.578Z,92.33
2019-03-31T05:01:28.342Z,92.97
2019-03-31T05:04:05.117Z,92.78
2019-03-31T05:06:29.774Z,92.54
2019-03-31T05:08:59.384Z,92.28
2019-03-31T05:11:29.062Z,92.25
2019-03-31T05:13:58.737Z,91.87
2019-03-31T05:16:28.488Z,91.82
2019-03-31T05:18:58.188Z,93.30
2019-03-31T05:21:27.893Z,91.72
2019-03-31T05:23:57.590Z,90.79
2019-03-31T05:26:27.598Z,91.68
2019-03-31T05:28:57.268Z,91.82
2019-03-31T05:31:26.906Z,92.33
2019-03-31T05:33:56.579Z,92.38
2019-03-31T05:36:26.226Z,93.05
2019-03-31T05:38:55.888Z,92.29
2019-03-31T05:41:25.666Z,91.35
2019-03-31T05:44:05.607Z,90.72
2019-03-31T05:46:26.971Z,90.72
2019-03-31T05:48:56.666Z,89.95
2019-03-31T05:51:26.227Z,90.12
2019-03-31T05:53:56.013Z,89.45
2019-03-31T05:56:25.728Z,88.58
2019-03-31T05:58:55.403Z,88.44
2019-03-31T06:01:25.318Z,88.78
2019-03-31T06:03:54.995Z,88.55
2019-03-31T06:06:24.648Z,88.55
2019-03-31T06:08:54.357Z,88.72
2019-03-31T06:11:24.087Z,88.72
2019-03-31T06:13:53.819Z,89.33
2019-03-31T06:16:23.535Z,89.51
2019-03-31T06:18:53.115Z,89.51
2019-03-31T06:21:23.018Z,89.37
2019-03-31T06:23:52.706Z,89.37
2019-03-31T06:26:22.446Z,88.98
2019-03-31T06:28:52.123Z,88.98
2019-03-31T06:31:21.975Z,89.00
2019-03-31T06:33:51.700Z,89.00
2019-03-31T06:36:21.348Z,88.59
2019-03-31T06:38:51.113Z,89.12
2019-03-31T06:41:21.098Z,89.23
2019-03-31T06:43:50.735Z,89.23
2019-03-31T06:46:20.410Z,89.73
2019-03-31T06:48:50.130Z,89.73
2019-03-31T06:51:20.113Z,89.43
2019-03-31T06:53:50.200Z,89.04
2019-03-31T06:56:19.956Z,88.89
2019-03-31T06:58:49.633Z,89.57
2019-03-31T07:01:19.360Z,89.73
2019-03-31T07:03:49.146Z,89.97
2019-03-31T07:06:19.012Z,89.96
2019-03-31T07:08:49.238Z,90.61
2019-03-31T07:11:19.125Z,90.81
2019-03-31T07:13:48.923Z,90.87
2019-03-31T07:16:21.860Z,90.19
2019-03-31T07:18:52.129Z,90.99
2019-03-31T07:21:21.842Z,90.78
2019-03-31T07:23:51.579Z,91.23
2019-03-31T07:26:21.352Z,91.35
2019-03-31T07:28:51.049Z,90.52
2019-03-31T07:31:20.722Z,90.97
2019-03-31T07:33:50.365Z,91.76
2019-03-31T07:36:20.318Z,91.76
2019-03-31T07:38:50.046Z,92.10
2019-03-31T07:41:20.171Z,91.93
2019-03-31T07:43:49.887Z,92.15
2019-03-31T07:46:19.654Z,92.55
2019-03-31T07:48:49.230Z,92.33
2019-03-31T07:51:18.977Z,93.10
2019-03-31T07:53:48.591Z,94.09
2019-03-31T07:56:18.271Z,93.76
2019-03-31T07:58:48.037Z,93.76
2019-03-31T08:01:17.863Z,93.14
2019-03-31T08:03:47.510Z,93.14
2019-03-31T08:06:17.258Z,91.29
2019-03-31T08:08:47.025Z,90.79
2019-03-31T08:11:17.369Z,90.23
2019-03-31T08:13:47.157Z,89.00
2019-03-31T08:16:16.962Z,88.36
2019-03-31T08:18:46.626Z,89.52
2019-03-31T08:21:16.298Z,87.59
2019-03-31T08:23:45.984Z,88.39
2019-03-31T08:26:15.732Z,87.20
2019-03-31T08:28:45.395Z,86.29
2019-03-31T08:31:15.116Z,85.93
2019-03-31T08:33:44.742Z,85.13
2019-03-31T08:36:14.495Z,85.34
2019-03-31T08:38:44.175Z,84.26
2019-03-31T08:41:13.812Z,85.87
2019-03-31T08:43:43.500Z,85.03
2019-03-31T08:46:13.238Z,85.03
2019-03-31T08:48:42.909Z,84.64
2019-03-31T08:51:12.532Z,81.94
2019-03-31T08:53:42.163Z,81.94
2019-03-31T08:56:11.795Z,83.10
2019-03-31T08:58:41.608Z,83.10
2019-03-31T09:01:13.742Z,82.85
2019-03-31T09:03:43.428Z,82.18
2019-03-31T09:06:13.128Z,83.44
2019-03-31T09:08:42.715Z,82.30
2019-03-31T09:11:12.378Z,81.12
2019-03-31T09:13:42.001Z,81.12
2019-03-31T09:16:11.696Z,80.41
2019-03-31T09:18:41.687Z,80.41
2019-03-31T09:21:11.416Z,82.15
2019-03-31T09:23:41.179Z,82.15
2019-03-31T09:26:10.931Z,81.63
2019-03-31T09:28:40.614Z,81.07
2019-03-31T09:31:10.359Z,81.07
2019-03-31T09:33:40.023Z,80.50
2019-03-31T09:36:16.206Z,80.75
2019-03-31T09:38:42.095Z,81.40
2019-03-31T09:41:11.819Z,79.64
2019-03-31T09:43:41.444Z,79.38
2019-03-31T09:46:11.127Z,78.99
2019-03-31T09:48:40.831Z,77.38
2019-03-31T09:51:10.489Z,78.18
2019-03-31T09:53:40.205Z,78.18
2019-03-31T09:56:09.939Z,77.66
2019-03-31T09:58:39.854Z,78.04
2019-03-31T10:01:09.523Z,77.79
2019-03-31T10:03:39.418Z,77.32
2019-03-31T10:06:10.936Z,77.65
2019-03-31T10:08:40.703Z,76.42
2019-03-31T10:11:10.332Z,76.42
2019-03-31T10:13:40.156Z,77.05
2019-03-31T10:16:09.948Z,75.62
2019-03-31T10:18:39.887Z,75.85
2019-03-31T10:21:09.593Z,74.18
2019-03-31T10:23:39.217Z,74.96
2019-03-31T10:26:09.020Z,74.11
2019-03-31T10:28:38.641Z,73.08
2019-03-31T10:31:08.635Z,71.55
2019-03-31T10:33:38.268Z,72.54
2019-03-31T10:36:08.076Z,74.04
2019-03-31T10:38:37.729Z,73.21
2019-03-31T10:41:07.429Z,74.13
2019-03-31T10:43:37.184Z,72.26
2019-03-31T10:46:06.847Z,73.04
2019-03-31T10:48:36.576Z,73.49
2019-03-31T10:51:06.699Z,73.06
2019-03-31T10:53:36.360Z,73.81
2019-03-31T10:56:06.034Z,72.32
2019-03-31T10:58:36.122Z,72.35
2019-03-31T11:01:08.421Z,72.71
2019-03-31T11:03:38.838Z,74.92
2019-03-31T11:06:08.558Z,74.73
2019-03-31T11:08:38.262Z,74.21
2019-03-31T11:11:07.948Z,74.55
2019-03-31T11:13:37.735Z,74.03
2019-03-31T11:16:07.375Z,74.77
2019-03-31T11:18:37.103Z,74.18
2019-03-31T11:21:13.819Z,75.27
2019-03-31T11:23:43.888Z,75.87
2019-03-31T11:26:13.640Z,75.26
2019-03-31T11:28:43.315Z,75.13
2019-03-31T11:31:12.948Z,74.32
2019-03-31T11:33:42.986Z,74.96
2019-03-31T11:36:12.873Z,74.74
2019-03-31T11:38:42.571Z,74.48
2019-03-31T11:41:12.241Z,74.38
2019-03-31T11:43:41.902Z,75.84
2019-03-31T11:46:11.622Z,75.23
2019-03-31T11:48:41.303Z,75.34
2019-03-31T11:51:10.944Z,76.25
2019-03-31T11:53:41.046Z,73.76
2019-03-31T11:56:10.919Z,72.60
2019-03-31T11:58:40.675Z,72.75
2019-03-31T12:04:59.920Z,72.91
2019-03-31T12:07:59.937Z,74.47
2019-03-31T12:10:29.596Z,74.89
2019-03-31T12:12:59.308Z,75.42
2019-03-31T12:15:29.005Z,75.61
2019-03-31T12:17:58.672Z,75.92
2019-03-31T12:20:28.311Z,76.00
2019-03-31T12:22:58.285Z,76.00
2019-03-31T12:25:27.988Z,76.59
2019-03-31T12:27:58.113Z,76.61
2019-03-31T12:30:30.722Z,74.08
2019-03-31T12:33:00.415Z,72.63
2019-03-31T12:35:30.076Z,73.21
2019-03-31T12:37:59.835Z,71.65
2019-03-31T12:40:33.928Z,70.14
2019-03-31T12:43:03.608Z,69.90
2019-03-31T12:45:33.239Z,71.41
2019-03-31T12:48:02.893Z,69.99
2019-03-31T12:50:32.589Z,70.93
2019-03-31T12:53:02.295Z,70.79
2019-03-31T12:55:32.124Z,70.79
2019-03-31T12:58:01.782Z,70.38
2019-03-31T13:00:31.480Z,70.99
2019-03-31T13:03:01.201Z,69.66
2019-03-31T13:05:30.894Z,69.62
2019-03-31T13:08:00.649Z,69.63
2019-03-31T13:10:30.446Z,68.87
2019-03-31T13:13:00.157Z,69.65
2019-03-31T13:15:31.630Z,69.87
2019-03-31T13:18:01.737Z,67.85
2019-03-31T13:20:31.492Z,68.51
2019-03-31T13:23:01.205Z,67.25
2019-03-31T13:25:32.351Z,66.49
2019-03-31T13:28:05.378Z,65.22
2019-03-31T13:30:33.809Z,65.68
2019-03-31T13:33:03.457Z,65.12
2019-03-31T13:35:33.239Z,64.96
2019-03-31T13:38:11.038Z,66.24
2019-03-31T13:40:34.366Z,65.37
2019-03-31T13:43:04.182Z,64.46
2019-03-31T13:45:33.840Z,65.02
2019-03-31T13:48:03.507Z,65.08
2019-03-31T13:50:33.254Z,63.90
2019-03-31T13:53:03.100Z,63.53
2019-03-31T13:55:35.391Z,63.97
2019-03-31T13:58:07.692Z,62.36
2019-03-31T14:00:38.357Z,62.31
2019-03-31T14:03:07.959Z,61.55
2019-03-31T14:05:37.603Z,61.54
2019-03-31T14:08:30.064Z,61.59
2019-03-31T14:11:21.755Z,60.71
2019-03-31T14:13:55.773Z,60.82
2019-03-31T14:16:23.688Z,63.46
2019-03-31T14:18:53.365Z,61.59
2019-03-31T14:21:23.421Z,61.48
2019-03-31T14:23:53.218Z,60.08
2019-03-31T14:26:22.907Z,60.10
2019-03-31T14:28:52.562Z,60.43
2019-03-31T14:31:22.308Z,60.37
2019-03-31T14:33:51.942Z,59.88
2019-03-31T14:36:21.650Z,61.61
2019-03-31T14:38:51.403Z,60.35
2019-03-31T14:41:21.154Z,61.20
2019-03-31T14:43:50.964Z,60.86
2019-03-31T14:46:21.064Z,61.97
2019-03-31T14:48:50.739Z,62.49
2019-03-31T14:51:20.422Z,62.16
2019-03-31T14:53:50.227Z,61.85
2019-03-31T14:56:20.026Z,62.48
2019-03-31T14:58:49.832Z,61.35
2019-03-31T15:01:21.269Z,59.79
2019-03-31T15:03:53.154Z,60.70
2019-03-31T15:06:24.412Z,59.24
2019-03-31T15:08:58.071Z,60.26
2019-03-31T15:11:27.802Z,60.57
2019-03-31T15:13:57.569Z,58.32
2019-03-31T15:16:27.452Z,58.15
2019-03-31T15:18:57.442Z,59.49
2019-03-31T15:21:29.031Z,58.92
2019-03-31T15:24:00.368Z,58.77
2019-03-31T15:26:30.473Z,59.19
2019-03-31T15:29:03.161Z,58.26
2019-03-31T15:31:43.344Z,58.74
2019-03-31T15:34:15.097Z,59.75
2019-03-31T15:36:51.045Z,59.83
2019-03-31T15:39:26.531Z,60.45
2019-03-31T15:41:58.873Z,60.43
2019-03-31T15:44:28.875Z,61.02
2019-03-31T15:47:06.202Z,60.20
2019-03-31T15:49:39.737Z,59.01
2019-03-31T15:52:16.000Z,58.71
2019-03-31T15:54:46.058Z,58.69
2019-03-31T15:57:16.397Z,57.61
2019-03-31T15:59:51.052Z,57.50
2019-03-31T16:02:22.566Z,58.83
2019-03-31T16:04:57.496Z,57.46
2019-03-31T16:07:27.671Z,57.74
2019-03-31T16:09:57.171Z,57.67
2019-03-31T16:12:27.093Z,58.17
2019-03-31T16:15:01.948Z,58.29
2019-03-31T16:17:33.375Z,58.32
2019-03-31T16:20:02.903Z,59.26
2019-03-31T16:22:39.893Z,59.25
2019-03-31T16:25:21.608Z,59.83
2019-03-31T16:27:50.952Z,60.43
2019-03-31T16:30:24.381Z,61.35
2019-03-31T16:32:57.811Z,60.69
2019-03-31T16:35:30.137Z,60.85
2019-03-31T16:37:59.535Z,61.02
2019-03-31T16:40:36.648Z,61.55
2019-03-31T16:43:05.850Z,60.20
2019-03-31T16:45:36.927Z,59.81
2019-03-31T16:48:15.599Z,57.99
2019-03-31T16:50:44.818Z,58.77
2019-03-31T16:53:14.063Z,59.41
2019-03-31T16:55:43.309Z,59.69
2019-03-31T16:58:18.308Z,59.59
2019-03-31T17:04:15.893Z,58.17
2019-03-31T17:06:45.243Z,57.77
2019-03-31T17:09:14.874Z,58.26
2019-03-31T17:11:46.451Z,57.77
2019-03-31T17:14:15.919Z,58.27
2019-03-31T17:16:45.028Z,59.42
2019-03-31T17:19:14.158Z,58.36
2019-03-31T17:21:43.454Z,59.14
2019-03-31T17:24:12.585Z,58.35
2019-03-31T17:26:41.706Z,58.10
2019-03-31T17:29:10.810Z,59.15
2019-03-31T17:31:39.957Z,60.14
2019-03-31T17:34:09.056Z,59.48
2019-03-31T17:36:38.251Z,57.94
2019-03-31T17:39:08.314Z,58.67
2019-03-31T17:41:37.458Z,60.52
2019-03-31T17:44:06.575Z,58.15
2019-03-31T17:46:35.744Z,59.35
2019-03-31T17:49:04.926Z,59.50
2019-03-31T17:51:34.057Z,58.41
2019-03-31T17:54:06.005Z,59.03
2019-03-31T17:56:34.055Z,57.61
2019-03-31T17:59:03.188Z,59.74
2019-03-31T18:01:32.295Z,59.34
2019-03-31T18:04:01.396Z,58.60
2019-03-31T18:06:30.509Z,58.77
2019-03-31T18:08:59.617Z,58.63
2019-03-31T18:11:29.221Z,60.09
2019-03-31T18:14:01.449Z,60.21
2019-03-31T18:16:31.404Z,58.82
2019-03-31T18:21:36.524Z,60.66
2019-03-31T18:24:05.855Z,62.04
2019-03-31T18:26:37.133Z,60.85
2019-03-31T18:29:06.570Z,61.84
2019-03-31T18:31:36.676Z,61.29
2019-03-31T18:34:07.422Z,60.59
2019-03-31T18:36:37.298Z,60.25
2019-03-31T18:39:07.700Z,62.34
2019-03-31T18:41:36.907Z,61.76
2019-03-31T18:44:06.270Z,65.08
2019-03-31T18:46:35.712Z,66.59
2019-03-31T18:49:05.920Z,66.72
2019-03-31T18:51:35.630Z,68.30
2019-03-31T18:54:29.887Z,69.24
2019-03-31T18:57:21.216Z,70.51
2019-03-31T19:00:04.649Z,70.61
2019-03-31T19:02:58.911Z,71.87
2019-03-31T19:05:59.185Z,71.87
2019-03-31T19:08:53.432Z,72.85
2019-03-31T19:11:47.761Z,72.85
2019-03-31T19:14:43.251Z,73.21
2019-03-31T19:17:44.253Z,73.56
2019-03-31T19:20:47.744Z,74.23
2019-03-31T19:23:33.232Z,74.23
2019-03-31T19:26:19.761Z,74.85
2019-03-31T19:29:11.624Z,74.76
2019-03-31T19:32:06.050Z,75.11
2019-03-31T19:35:06.341Z,75.06
2019-03-31T19:37:53.219Z,75.06
2019-03-31T19:40:41.605Z,75.32
2019-03-31T19:43:41.926Z,75.23
2019-03-31T19:46:30.073Z,75.78
2019-03-31T19:49:10.806Z,76.03
2019-03-31T19:52:06.572Z,76.10
2019-03-31T19:54:52.697Z,75.80
2019-03-31T19:57:46.106Z,75.98
2019-03-31T20:00:33.393Z,75.95
2019-03-31T20:03:11.008Z,76.93
2019-03-31T20:06:08.423Z,77.72
2019-03-31T20:08:44.846Z,77.47
2019-03-31T20:11:48.131Z,78.01
2019-03-31T20:14:40.651Z,76.99
2019-03-31T20:17:27.448Z,76.49
2019-03-31T20:20:18.350Z,77.61
2019-03-31T20:23:00.152Z,78.36
2019-03-31T20:25:44.855Z,78.61
2019-03-31T20:28:38.133Z,78.63
2019-03-31T20:31:14.071Z,77.93
2019-03-31T20:34:17.320Z,77.87
2019-03-31T20:37:04.599Z,77.20
2019-03-31T20:39:57.366Z,77.36
2019-03-31T20:42:46.924Z,77.88
2019-03-31T20:45:16.166Z,77.58
2019-03-31T20:47:45.358Z,77.62
2019-03-31T20:50:15.961Z,78.13
2019-03-31T20:52:45.089Z,78.29
2019-03-31T20:55:16.522Z,77.97
2019-03-31T20:57:45.141Z,77.98
2019-03-31T21:00:14.795Z,78.08
2019-03-31T21:02:44.017Z,77.25
2019-03-31T21:05:13.272Z,77.92
2019-03-31T21:07:42.713Z,77.80
2019-03-31T21:10:11.840Z,77.87
2019-03-31T21:12:40.985Z,78.20
2019-03-31T21:15:10.155Z,79.63
2019-03-31T21:17:39.282Z,78.93
2019-03-31T21:20:08.638Z,79.34
2019-03-31T21:22:37.749Z,79.77
2019-03-31T21:25:07.010Z,79.54
2019-03-31T21:27:36.083Z,79.92
2019-03-31T21:30:05.828Z,80.32
2019-03-31T21:32:34.970Z,80.56
2019-03-31T21:35:04.115Z,80.92
2019-03-31T21:37:33.277Z,81.03
2019-03-31T21:40:02.413Z,80.83
2019-03-31T21:42:31.519Z,82.09
2019-03-31T21:45:00.644Z,82.48
2019-03-31T21:47:29.785Z,82.54
2019-03-31T21:49:59.317Z,80.43
2019-03-31T21:52:28.366Z,81.55
2019-03-31T21:54:57.543Z,82.98
2019-03-31T21:57:26.695Z,83.84
2019-03-31T21:59:56.050Z,84.21
2019-03-31T22:02:25.399Z,85.46
2019-03-31T22:04:54.746Z,85.98
2019-03-31T22:07:23.880Z,86.24
2019-03-31T22:09:53.013Z,86.35
2019-03-31T22:12:22.361Z,86.68
2019-03-31T22:14:51.569Z,86.16
2019-03-31T22:17:20.788Z,86.40
2019-03-31T22:19:49.926Z,86.62
2019-03-31T22:22:19.064Z,86.18
2019-03-31T22:24:48.192Z,86.20
2019-03-31T22:27:17.321Z,85.99
2019-03-31T22:29:46.375Z,85.79
2019-03-31T22:32:15.610Z,85.64
2019-03-31T22:34:44.713Z,85.74
2019-03-31T22:37:13.843Z,85.55
2019-03-31T22:39:42.930Z,85.59
2019-03-31T22:42:12.024Z,86.32
2019-03-31T22:44:41.419Z,85.84
2019-03-31T22:47:10.537Z,86.04
2019-03-31T22:49:39.676Z,86.43
2019-03-31T22:52:08.784Z,86.93
2019-03-31T22:54:37.890Z,87.43
2019-03-31T22:57:07.120Z,87.33
2019-03-31T22:59:36.218Z,87.19
2019-03-31T23:02:05.344Z,86.86
2019-03-31T23:04:34.471Z,86.42
2019-03-31T23:07:04.078Z,86.34
2019-03-31T23:09:34.498Z,85.97
2019-03-31T23:12:03.745Z,86.04
2019-03-31T23:14:33.092Z,85.91
2019-03-31T23:17:02.198Z,85.75
2019-03-31T23:19:31.322Z,85.90
2019-03-31T23:22:00.421Z,85.55
2019-03-31T23:24:29.546Z,85.59
2019-03-31T23:26:58.632Z,86.27
2019-03-31T23:29:27.749Z,86.36
2019-03-31T23:31:56.878Z,86.41
2019-03-31T23:34:26.195Z,86.01
2019-03-31T23:36:55.290Z,85.78
2019-03-31T23:39:24.406Z,86.06
2019-03-31T23:41:53.497Z,86.25
2019-03-31T23:44:22.614Z,86.59
2019-03-31T23:46:51.768Z,86.42
2019-03-31T23:49:20.851Z,85.91
2019-03-31T23:51:49.984Z,86.53
2019-03-31T23:54:19.107Z,86.33
2019-03-31T23:56:48.193Z,86.49
2019-03-31T23:59:17.431Z,85.56
